sensor_id;sensor_type;location;lat;lon;timestamp;pressure;altitude;pressure_sealevel;temperature;humidity
53908;BME280;40469;47.998;7.794;2023-03-15T00:00:33;98796.81;;;3.67;100.00
53908;BME280;40469;47.998;7.794;2023-03-15T00:02:58;98810.25;;;3.46;100.00
53908;BME280;40469;47.998;7.794;2023-03-15T00:05:23;98813.75;;;3.49;100.00
53908;BME280;40469;47.998;7.794;2023-03-15T00:07:49;98819.00;;;3.54;100.00
53908;BME280;40469;47.998;7.794;2023-03-15T00:10:14;98833.56;;;3.50;100.00
53908;BME280;40469;47.998;7.794;2023-03-15T00:12:39;98835.97;;;3.39;100.00
53908;BME280;40469;47.998;7.794;2023-03-15T00:15:06;98834.03;;;3.28;100.00
53908;BME280;40469;47.998;7.794;2023-03-15T00:17:32;98838.19;;;3.18;100.00
53908;BME280;40469;47.998;7.794;2023-03-15T00:19:59;98837.13;;;3.07;100.00
53908;BME280;40469;47.998;7.794;2023-03-15T00:22:24;98847.41;;;3.05;100.00
53908;BME280;40469;47.998;7.794;2023-03-15T00:24:49;98856.03;;;3.06;100.00
53908;BME280;40469;47.998;7.794;2023-03-15T00:27:14;98864.47;;;2.97;100.00
53908;BME280;40469;47.998;7.794;2023-03-15T00:29:39;98873.94;;;2.99;100.00
53908;BME280;40469;47.998;7.794;2023-03-15T00:32:05;98873.06;;;2.97;100.00
53908;BME280;40469;47.998;7.794;2023-03-15T00:34:31;98880.63;;;2.88;100.00
53908;BME280;40469;47.998;7.794;2023-03-15T00:36:57;98883.84;;;2.78;100.00
53908;BME280;40469;47.998;7.794;2023-03-15T00:39:22;98895.72;;;2.70;100.00
53908;BME280;40469;47.998;7.794;2023-03-15T00:41:49;98902.81;;;2.80;100.00
53908;BME280;40469;47.998;7.794;2023-03-15T00:44:15;98905.44;;;2.83;100.00
53908;BME280;40469;47.998;7.794;2023-03-15T00:46:40;98904.47;;;2.78;100.00
53908;BME280;40469;47.998;7.794;2023-03-15T00:49:05;98895.88;;;2.77;100.00
53908;BME280;40469;47.998;7.794;2023-03-15T00:51:30;98908.81;;;2.79;100.00
53908;BME280;40469;47.998;7.794;2023-03-15T00:53:57;98914.91;;;2.82;100.00
53908;BME280;40469;47.998;7.794;2023-03-15T00:56:23;98914.66;;;2.70;100.00
53908;BME280;40469;47.998;7.794;2023-03-15T00:58:49;98923.09;;;2.63;100.00
53908;BME280;40469;47.998;7.794;2023-03-15T01:01:21;98910.88;;;2.56;100.00
53908;BME280;40469;47.998;7.794;2023-03-15T01:03:46;98919.41;;;2.52;100.00
53908;BME280;40469;47.998;7.794;2023-03-15T01:06:13;98924.31;;;2.41;100.00
53908;BME280;40469;47.998;7.794;2023-03-15T01:08:38;98919.97;;;2.38;100.00
53908;BME280;40469;47.998;7.794;2023-03-15T01:11:05;98918.22;;;2.37;100.00
53908;BME280;40469;47.998;7.794;2023-03-15T01:13:30;98928.56;;;2.39;100.00
53908;BME280;40469;47.998;7.794;2023-03-15T01:15:55;98935.50;;;2.41;100.00
53908;BME280;40469;47.998;7.794;2023-03-15T01:18:20;98932.91;;;2.41;100.00
53908;BME280;40469;47.998;7.794;2023-03-15T01:20:46;98939.84;;;2.44;100.00
53908;BME280;40469;47.998;7.794;2023-03-15T01:23:11;98941.53;;;2.42;100.00
53908;BME280;40469;47.998;7.794;2023-03-15T01:25:36;98946.97;;;2.54;100.00
53908;BME280;40469;47.998;7.794;2023-03-15T01:28:01;98950.31;;;2.52;100.00
53908;BME280;40469;47.998;7.794;2023-03-15T01:30:27;98945.91;;;2.46;100.00
53908;BME280;40469;47.998;7.794;2023-03-15T01:32:52;98950.22;;;2.47;100.00
53908;BME280;40469;47.998;7.794;2023-03-15T01:35:17;98953.72;;;2.49;100.00
53908;BME280;40469;47.998;7.794;2023-03-15T01:37:42;98959.53;;;2.40;100.00
53908;BME280;40469;47.998;7.794;2023-03-15T01:40:10;98953.97;;;2.23;100.00
53908;BME280;40469;47.998;7.794;2023-03-15T01:42:49;98957.47;;;2.25;100.00
53908;BME280;40469;47.998;7.794;2023-03-15T01:47:58;98966.63;;;2.13;100.00
53908;BME280;40469;47.998;7.794;2023-03-15T01:50:24;98965.75;;;2.12;100.00
53908;BME280;40469;47.998;7.794;2023-03-15T01:52:49;98968.28;;;2.11;100.00
53908;BME280;40469;47.998;7.794;2023-03-15T01:55:15;98970.72;;;2.06;100.00
53908;BME280;40469;47.998;7.794;2023-03-15T01:57:44;98968.16;;;2.06;100.00
53908;BME280;40469;47.998;7.794;2023-03-15T02:00:12;98962.16;;;2.05;100.00
53908;BME280;40469;47.998;7.794;2023-03-15T02:02:42;98971.47;;;2.00;100.00
53908;BME280;40469;47.998;7.794;2023-03-15T02:05:10;98973.97;;;1.97;100.00
53908;BME280;40469;47.998;7.794;2023-03-15T02:07:37;98974.00;;;1.99;100.00
53908;BME280;40469;47.998;7.794;2023-03-15T02:10:06;98979.00;;;1.93;100.00
53908;BME280;40469;47.998;7.794;2023-03-15T02:12:32;98979.69;;;1.85;100.00
53908;BME280;40469;47.998;7.794;2023-03-15T02:14:59;98982.97;;;1.80;100.00
53908;BME280;40469;47.998;7.794;2023-03-15T02:17:28;98986.22;;;1.73;100.00
53908;BME280;40469;47.998;7.794;2023-03-15T02:20:01;98986.34;;;1.77;100.00
53908;BME280;40469;47.998;7.794;2023-03-15T02:25:15;98986.16;;;1.69;100.00
53908;BME280;40469;47.998;7.794;2023-03-15T02:27:42;98985.97;;;1.63;100.00
53908;BME280;40469;47.998;7.794;2023-03-15T02:30:08;98986.03;;;1.65;100.00
53908;BME280;40469;47.998;7.794;2023-03-15T02:32:34;98982.41;;;1.58;100.00
53908;BME280;40469;47.998;7.794;2023-03-15T02:35:00;98975.53;;;1.57;100.00
53908;BME280;40469;47.998;7.794;2023-03-15T02:37:25;98979.41;;;1.43;100.00
53908;BME280;40469;47.998;7.794;2023-03-15T02:39:50;98981.09;;;1.41;100.00
53908;BME280;40469;47.998;7.794;2023-03-15T02:42:15;98971.38;;;1.30;100.00
53908;BME280;40469;47.998;7.794;2023-03-15T02:44:42;98970.41;;;1.27;100.00
53908;BME280;40469;47.998;7.794;2023-03-15T02:47:09;98972.69;;;1.16;100.00
53908;BME280;40469;47.998;7.794;2023-03-15T02:49:38;98983.66;;;1.09;100.00
53908;BME280;40469;47.998;7.794;2023-03-15T02:52:04;98987.13;;;1.11;100.00
53908;BME280;40469;47.998;7.794;2023-03-15T02:54:30;98992.41;;;1.16;100.00
53908;BME280;40469;47.998;7.794;2023-03-15T02:56:58;98995.84;;;1.16;100.00
53908;BME280;40469;47.998;7.794;2023-03-15T02:59:23;98993.22;;;1.14;100.00
53908;BME280;40469;47.998;7.794;2023-03-15T03:01:48;98997.25;;;1.05;100.00
53908;BME280;40469;47.998;7.794;2023-03-15T03:04:13;98999.81;;;1.05;100.00
53908;BME280;40469;47.998;7.794;2023-03-15T03:06:39;99002.34;;;1.03;100.00
53908;BME280;40469;47.998;7.794;2023-03-15T03:09:07;98998.97;;;1.06;100.00
53908;BME280;40469;47.998;7.794;2023-03-15T03:11:33;99008.50;;;1.08;100.00
53908;BME280;40469;47.998;7.794;2023-03-15T03:13:58;99005.06;;;1.09;100.00
53908;BME280;40469;47.998;7.794;2023-03-15T03:16:23;99006.78;;;1.09;100.00
53908;BME280;40469;47.998;7.794;2023-03-15T03:18:48;99005.66;;;0.99;100.00
53908;BME280;40469;47.998;7.794;2023-03-15T03:21:13;99008.00;;;0.91;100.00
53908;BME280;40469;47.998;7.794;2023-03-15T03:23:39;99009.53;;;0.85;100.00
53908;BME280;40469;47.998;7.794;2023-03-15T03:26:10;99012.72;;;0.78;100.00
53908;BME280;40469;47.998;7.794;2023-03-15T03:28:35;99023.75;;;0.73;100.00
53908;BME280;40469;47.998;7.794;2023-03-15T03:31:01;99024.59;;;0.72;100.00
53908;BME280;40469;47.998;7.794;2023-03-15T03:33:26;99027.09;;;0.71;100.00
53908;BME280;40469;47.998;7.794;2023-03-15T03:35:51;99027.06;;;0.69;100.00
53908;BME280;40469;47.998;7.794;2023-03-15T03:38:18;99020.31;;;0.73;100.00
53908;BME280;40469;47.998;7.794;2023-03-15T03:40:44;99018.66;;;0.75;100.00
53908;BME280;40469;47.998;7.794;2023-03-15T03:43:09;99016.91;;;0.74;100.00
53908;BME280;40469;47.998;7.794;2023-03-15T03:45:34;99019.34;;;0.69;100.00
53908;BME280;40469;47.998;7.794;2023-03-15T03:48:00;99027.06;;;0.69;100.00
53908;BME280;40469;47.998;7.794;2023-03-15T03:50:25;99032.88;;;0.64;100.00
53908;BME280;40469;47.998;7.794;2023-03-15T03:52:51;99038.69;;;0.58;100.00
53908;BME280;40469;47.998;7.794;2023-03-15T03:55:16;99035.25;;;0.57;100.00
53908;BME280;40469;47.998;7.794;2023-03-15T03:57:41;99043.88;;;0.60;100.00
53908;BME280;40469;47.998;7.794;2023-03-15T04:00:08;99050.75;;;0.61;100.00
53908;BME280;40469;47.998;7.794;2023-03-15T04:02:34;99044.84;;;0.63;100.00
53908;BME280;40469;47.998;7.794;2023-03-15T04:04:59;99054.78;;;0.52;100.00
53908;BME280;40469;47.998;7.794;2023-03-15T04:07:24;99056.53;;;0.53;100.00
53908;BME280;40469;47.998;7.794;2023-03-15T04:09:50;99053.06;;;0.51;100.00
53908;BME280;40469;47.998;7.794;2023-03-15T04:12:15;99059.81;;;0.49;100.00
53908;BME280;40469;47.998;7.794;2023-03-15T04:14:40;99060.44;;;0.42;100.00
53908;BME280;40469;47.998;7.794;2023-03-15T04:17:06;99067.09;;;0.35;100.00
53908;BME280;40469;47.998;7.794;2023-03-15T04:19:32;99060.88;;;0.29;100.00
53908;BME280;40469;47.998;7.794;2023-03-15T04:21:57;99066.88;;;0.29;100.00
53908;BME280;40469;47.998;7.794;2023-03-15T04:24:23;99074.66;;;0.31;100.00
53908;BME280;40469;47.998;7.794;2023-03-15T04:26:48;99069.28;;;0.25;100.00
53908;BME280;40469;47.998;7.794;2023-03-15T04:29:13;99084.88;;;0.29;100.00
53908;BME280;40469;47.998;7.794;2023-03-15T04:31:39;99085.72;;;0.30;100.00
53908;BME280;40469;47.998;7.794;2023-03-15T04:34:07;99092.47;;;0.26;100.00
53908;BME280;40469;47.998;7.794;2023-03-15T04:36:32;99091.53;;;0.24;100.00
53908;BME280;40469;47.998;7.794;2023-03-15T04:38:57;99092.50;;;0.28;100.00
53908;BME280;40469;47.998;7.794;2023-03-15T04:41:27;99096.63;;;0.23;100.00
53908;BME280;40469;47.998;7.794;2023-03-15T04:43:52;99094.00;;;0.21;100.00
53908;BME280;40469;47.998;7.794;2023-03-15T04:46:17;99085.38;;;0.19;100.00
53908;BME280;40469;47.998;7.794;2023-03-15T04:48:43;99090.31;;;0.13;100.00
53908;BME280;40469;47.998;7.794;2023-03-15T04:51:08;99091.19;;;0.13;100.00
53908;BME280;40469;47.998;7.794;2023-03-15T04:53:33;99086.84;;;0.12;100.00
53908;BME280;40469;47.998;7.794;2023-03-15T04:55:58;99098.03;;;0.13;100.00
53908;BME280;40469;47.998;7.794;2023-03-15T04:58:23;99094.47;;;0.09;100.00
53908;BME280;40469;47.998;7.794;2023-03-15T05:00:49;99092.66;;;0.07;100.00
53908;BME280;40469;47.998;7.794;2023-03-15T05:03:14;99093.69;;;0.12;100.00
53908;BME280;40469;47.998;7.794;2023-03-15T05:05:39;99091.97;;;0.11;100.00
53908;BME280;40469;47.998;7.794;2023-03-15T05:08:04;99093.56;;;0.07;100.00
53908;BME280;40469;47.998;7.794;2023-03-15T05:10:30;99084.00;;;0.03;100.00
53908;BME280;40469;47.998;7.794;2023-03-15T05:12:57;99084.00;;;0.03;100.00
53908;BME280;40469;47.998;7.794;2023-03-15T05:15:22;99087.59;;;0.08;100.00
53908;BME280;40469;47.998;7.794;2023-03-15T05:17:47;99086.47;;;0.00;100.00
53908;BME280;40469;47.998;7.794;2023-03-15T05:20:13;99093.38;;;0.03;100.00
53908;BME280;40469;47.998;7.794;2023-03-15T05:22:39;99098.47;;;0.01;100.00
53908;BME280;40469;47.998;7.794;2023-03-15T05:25:05;99099.25;;;-0.02;100.00
53908;BME280;40469;47.998;7.794;2023-03-15T05:27:30;99095.97;;;0.03;100.00
53908;BME280;40469;47.998;7.794;2023-03-15T05:29:57;99105.41;;;0.04;100.00
53908;BME280;40469;47.998;7.794;2023-03-15T05:32:23;99108.78;;;0.03;100.00
53908;BME280;40469;47.998;7.794;2023-03-15T05:34:50;99114.91;;;0.06;100.00
53908;BME280;40469;47.998;7.794;2023-03-15T05:37:18;99116.00;;;0.13;100.00
53908;BME280;40469;47.998;7.794;2023-03-15T05:39:43;99117.16;;;0.23;100.00
53908;BME280;40469;47.998;7.794;2023-03-15T05:42:09;99122.47;;;0.27;100.00
53908;BME280;40469;47.998;7.794;2023-03-15T05:44:34;99128.47;;;0.28;100.00
53908;BME280;40469;47.998;7.794;2023-03-15T05:46:59;99122.41;;;0.26;100.00
53908;BME280;40469;47.998;7.794;2023-03-15T05:49:25;99120.66;;;0.25;100.00
53908;BME280;40469;47.998;7.794;2023-03-15T05:51:50;99126.56;;;0.22;100.00
53908;BME280;40469;47.998;7.794;2023-03-15T05:54:15;99125.75;;;0.23;100.00
53908;BME280;40469;47.998;7.794;2023-03-15T05:56:40;99122.22;;;0.20;100.00
53908;BME280;40469;47.998;7.794;2023-03-15T05:59:05;99127.13;;;0.13;100.00
53908;BME280;40469;47.998;7.794;2023-03-15T06:01:31;99128.88;;;0.14;100.00
53908;BME280;40469;47.998;7.794;2023-03-15T06:03:56;99130.50;;;0.12;100.00
53908;BME280;40469;47.998;7.794;2023-03-15T06:06:21;99138.19;;;0.12;100.00
53908;BME280;40469;47.998;7.794;2023-03-15T06:08:46;99135.91;;;0.20;100.00
53908;BME280;40469;47.998;7.794;2023-03-15T06:11:12;99150.47;;;0.21;100.00
53908;BME280;40469;47.998;7.794;2023-03-15T06:13:37;99144.72;;;0.27;100.00
53908;BME280;40469;47.998;7.794;2023-03-15T06:16:02;99149.63;;;0.21;100.00
53908;BME280;40469;47.998;7.794;2023-03-15T06:18:27;99159.88;;;0.21;100.00
53908;BME280;40469;47.998;7.794;2023-03-15T06:20:53;99158.97;;;0.18;100.00
53908;BME280;40469;47.998;7.794;2023-03-15T06:23:18;99171.31;;;0.29;100.00
53908;BME280;40469;47.998;7.794;2023-03-15T06:25:43;99171.31;;;0.29;100.00
53908;BME280;40469;47.998;7.794;2023-03-15T06:28:09;99172.72;;;0.45;100.00
53908;BME280;40469;47.998;7.794;2023-03-15T06:30:34;99172.78;;;0.22;100.00
53908;BME280;40469;47.998;7.794;2023-03-15T06:32:59;99172.59;;;0.16;100.00
53908;BME280;40469;47.998;7.794;2023-03-15T06:35:25;99170.78;;;0.13;100.00
53908;BME280;40469;47.998;7.794;2023-03-15T06:37:50;99180.66;;;0.27;100.00
53908;BME280;40469;47.998;7.794;2023-03-15T06:40:17;99181.63;;;0.30;100.00
53908;BME280;40469;47.998;7.794;2023-03-15T06:42:42;99181.72;;;0.33;100.00
53908;BME280;40469;47.998;7.794;2023-03-15T06:45:08;99175.06;;;0.38;100.00
53908;BME280;40469;47.998;7.794;2023-03-15T06:47:33;99170.94;;;0.44;100.00
53908;BME280;40469;47.998;7.794;2023-03-15T06:49:59;99173.78;;;0.51;100.00
53908;BME280;40469;47.998;7.794;2023-03-15T06:52:24;99171.47;;;0.59;100.00
53908;BME280;40469;47.998;7.794;2023-03-15T06:54:49;99170.03;;;0.67;100.00
53908;BME280;40469;47.998;7.794;2023-03-15T06:57:15;99172.78;;;0.73;100.00
53908;BME280;40469;47.998;7.794;2023-03-15T06:59:40;99174.72;;;0.81;100.00
53908;BME280;40469;47.998;7.794;2023-03-15T07:02:07;99192.94;;;0.87;100.00
53908;BME280;40469;47.998;7.794;2023-03-15T07:04:37;99187.41;;;1.02;100.00
53908;BME280;40469;47.998;7.794;2023-03-15T07:07:02;99192.03;;;1.12;100.00
53908;BME280;40469;47.998;7.794;2023-03-15T07:09:27;99192.25;;;1.20;100.00
53908;BME280;40469;47.998;7.794;2023-03-15T07:11:52;99200.41;;;1.33;100.00
53908;BME280;40469;47.998;7.794;2023-03-15T07:14:18;99199.72;;;1.39;100.00
53908;BME280;40469;47.998;7.794;2023-03-15T07:16:43;99205.00;;;1.44;100.00
53908;BME280;40469;47.998;7.794;2023-03-15T07:19:08;99210.53;;;1.56;100.00
53908;BME280;40469;47.998;7.794;2023-03-15T07:21:33;99208.16;;;1.64;100.00
53908;BME280;40469;47.998;7.794;2023-03-15T07:23:59;99211.69;;;1.67;100.00
53908;BME280;40469;47.998;7.794;2023-03-15T07:26:24;99213.97;;;1.85;100.00
53908;BME280;40469;47.998;7.794;2023-03-15T07:28:49;99213.28;;;1.91;100.00
53908;BME280;40469;47.998;7.794;2023-03-15T07:31:15;99210.28;;;2.07;100.00
53908;BME280;40469;47.998;7.794;2023-03-15T07:33:40;99207.66;;;2.06;100.00
53908;BME280;40469;47.998;7.794;2023-03-15T07:36:06;99206.94;;;2.10;100.00
53908;BME280;40469;47.998;7.794;2023-03-15T07:38:31;99214.16;;;2.23;100.00
53908;BME280;40469;47.998;7.794;2023-03-15T07:40:59;99212.63;;;2.30;100.00
53908;BME280;40469;47.998;7.794;2023-03-15T07:43:25;99208.63;;;2.41;100.00
53908;BME280;40469;47.998;7.794;2023-03-15T07:45:50;99216.50;;;2.46;100.00
53908;BME280;40469;47.998;7.794;2023-03-15T07:48:15;99221.97;;;2.58;100.00
53908;BME280;40469;47.998;7.794;2023-03-15T07:50:41;99219.59;;;2.66;100.00
53908;BME280;40469;47.998;7.794;2023-03-15T07:53:06;99216.09;;;2.64;100.00
53908;BME280;40469;47.998;7.794;2023-03-15T07:55:32;99223.09;;;2.70;100.00
53908;BME280;40469;47.998;7.794;2023-03-15T07:58:43;99216.50;;;2.79;100.00
53908;BME280;40469;47.998;7.794;2023-03-15T08:00:46;99223.63;;;2.90;100.00
53908;BME280;40469;47.998;7.794;2023-03-15T08:03:11;99218.00;;;3.06;100.00
53908;BME280;40469;47.998;7.794;2023-03-15T08:05:39;99226.88;;;3.17;100.00
53908;BME280;40469;47.998;7.794;2023-03-15T08:08:05;99230.44;;;3.22;100.00
53908;BME280;40469;47.998;7.794;2023-03-15T08:10:30;99225.56;;;3.35;100.00
53908;BME280;40469;47.998;7.794;2023-03-15T08:12:56;99221.41;;;3.41;100.00
53908;BME280;40469;47.998;7.794;2023-03-15T08:15:21;99225.81;;;3.46;100.00
53908;BME280;40469;47.998;7.794;2023-03-15T08:17:46;99224.41;;;3.58;100.00
53908;BME280;40469;47.998;7.794;2023-03-15T08:20:12;99230.41;;;3.59;100.00
53908;BME280;40469;47.998;7.794;2023-03-15T08:22:40;99223.84;;;3.73;100.00
53908;BME280;40469;47.998;7.794;2023-03-15T08:25:11;99231.00;;;3.85;100.00
53908;BME280;40469;47.998;7.794;2023-03-15T08:27:37;99236.25;;;3.88;100.00
53908;BME280;40469;47.998;7.794;2023-03-15T08:30:03;99228.91;;;4.08;100.00
53908;BME280;40469;47.998;7.794;2023-03-15T08:32:30;99226.16;;;4.45;100.00
53908;BME280;40469;47.998;7.794;2023-03-15T08:34:55;99221.78;;;4.89;100.00
53908;BME280;40469;47.998;7.794;2023-03-15T08:37:20;99219.63;;;5.16;100.00
53908;BME280;40469;47.998;7.794;2023-03-15T08:39:49;99218.47;;;4.97;100.00
53908;BME280;40469;47.998;7.794;2023-03-15T08:42:21;99216.13;;;5.12;100.00
53908;BME280;40469;47.998;7.794;2023-03-15T08:44:47;99210.50;;;4.84;100.00
53908;BME280;40469;47.998;7.794;2023-03-15T08:47:12;99209.63;;;4.84;100.00
53908;BME280;40469;47.998;7.794;2023-03-15T08:49:37;99206.09;;;4.79;100.00
53908;BME280;40469;47.998;7.794;2023-03-15T08:52:02;99201.16;;;4.94;100.00
53908;BME280;40469;47.998;7.794;2023-03-15T08:54:28;99211.19;;;5.29;100.00
53908;BME280;40469;47.998;7.794;2023-03-15T08:56:53;99197.75;;;5.53;100.00
53908;BME280;40469;47.998;7.794;2023-03-15T08:59:18;99206.84;;;5.89;100.00
53908;BME280;40469;47.998;7.794;2023-03-15T09:01:43;99216.69;;;6.12;100.00
53908;BME280;40469;47.998;7.794;2023-03-15T09:04:09;99217.13;;;6.50;100.00
53908;BME280;40469;47.998;7.794;2023-03-15T09:06:34;99232.63;;;6.42;100.00
53908;BME280;40469;47.998;7.794;2023-03-15T09:09:00;99223.31;;;6.63;100.00
53908;BME280;40469;47.998;7.794;2023-03-15T09:11:25;99229.66;;;6.94;100.00
53908;BME280;40469;47.998;7.794;2023-03-15T09:13:50;99234.31;;;7.31;100.00
53908;BME280;40469;47.998;7.794;2023-03-15T09:16:15;99236.69;;;7.05;100.00
53908;BME280;40469;47.998;7.794;2023-03-15T09:18:40;99244.63;;;7.25;100.00
53908;BME280;40469;47.998;7.794;2023-03-15T09:21:08;99241.06;;;7.10;100.00
53908;BME280;40469;47.998;7.794;2023-03-15T09:23:33;99225.78;;;7.49;100.00
53908;BME280;40469;47.998;7.794;2023-03-15T09:25:58;99235.09;;;7.20;100.00
53908;BME280;40469;47.998;7.794;2023-03-15T09:28:24;99227.75;;;7.93;100.00
53908;BME280;40469;47.998;7.794;2023-03-15T09:30:50;99233.03;;;8.13;100.00
53908;BME280;40469;47.998;7.794;2023-03-15T09:33:16;99234.88;;;8.37;100.00
53908;BME280;40469;47.998;7.794;2023-03-15T09:35:41;99235.81;;;8.50;100.00
53908;BME280;40469;47.998;7.794;2023-03-15T09:38:06;99234.97;;;8.52;100.00
53908;BME280;40469;47.998;7.794;2023-03-15T09:40:33;99234.13;;;8.75;100.00
53908;BME280;40469;47.998;7.794;2023-03-15T09:43:03;99238.53;;;9.13;100.00
53908;BME280;40469;47.998;7.794;2023-03-15T09:51:32;99247.16;;;9.72;97.70
53908;BME280;40469;47.998;7.794;2023-03-15T09:53:53;99255.03;;;9.34;100.00
53908;BME280;40469;47.998;7.794;2023-03-15T09:58:49;99248.94;;;9.11;100.00
53908;BME280;40469;47.998;7.794;2023-03-15T10:01:15;99248.94;;;9.64;98.28
53908;BME280;40469;47.998;7.794;2023-03-15T10:06:50;99252.41;;;9.35;98.10
53908;BME280;40469;47.998;7.794;2023-03-15T10:08:59;99252.41;;;9.51;93.24
53908;BME280;40469;47.998;7.794;2023-03-15T10:16:31;99252.41;;;9.51;100.00
53908;BME280;40469;47.998;7.794;2023-03-15T10:19:12;99247.91;;;10.14;99.64
53908;BME280;40469;47.998;7.794;2023-03-15T10:21:51;99250.53;;;10.16;96.63
53908;BME280;40469;47.998;7.794;2023-03-15T10:24:32;99253.19;;;10.11;94.44
53908;BME280;40469;47.998;7.794;2023-03-15T10:26:58;99257.50;;;10.17;99.20
53908;BME280;40469;47.998;7.794;2023-03-15T10:29:30;99249.66;;;10.14;96.38
53908;BME280;40469;47.998;7.794;2023-03-15T10:31:55;99250.50;;;10.27;97.49
53908;BME280;40469;47.998;7.794;2023-03-15T10:34:20;99242.78;;;9.88;88.95
53908;BME280;40469;47.998;7.794;2023-03-15T10:36:47;99239.19;;;10.28;94.77
53908;BME280;40469;47.998;7.794;2023-03-15T10:39:14;99231.28;;;10.55;92.33
53908;BME280;40469;47.998;7.794;2023-03-15T10:41:43;99227.09;;;10.03;90.67
53908;BME280;40469;47.998;7.794;2023-03-15T10:44:16;99241.13;;;9.38;91.25
53908;BME280;40469;47.998;7.794;2023-03-15T10:46:57;99245.44;;;9.74;92.63
53908;BME280;40469;47.998;7.794;2023-03-15T10:49:27;99219.31;;;9.96;91.93
53908;BME280;40469;47.998;7.794;2023-03-15T10:51:56;99213.31;;;9.35;92.26
53908;BME280;40469;47.998;7.794;2023-03-15T10:54:22;99233.28;;;9.64;94.90
53908;BME280;40469;47.998;7.794;2023-03-15T10:56:50;99233.28;;;9.73;88.20
53908;BME280;40469;47.998;7.794;2023-03-15T10:59:22;99224.66;;;9.02;95.08
53908;BME280;40469;47.998;7.794;2023-03-15T11:01:51;99232.44;;;9.60;94.98
53908;BME280;40469;47.998;7.794;2023-03-15T11:09:11;99231.56;;;9.03;100.00
53908;BME280;40469;47.998;7.794;2023-03-15T11:14:34;99230.53;;;8.31;100.00
53908;BME280;40469;47.998;7.794;2023-03-15T11:17:00;99230.44;;;8.05;100.00
53908;BME280;40469;47.998;7.794;2023-03-15T11:19:26;99221.84;;;8.31;97.00
53908;BME280;40469;47.998;7.794;2023-03-15T11:21:52;99222.00;;;8.91;89.93
53908;BME280;40469;47.998;7.794;2023-03-15T11:24:35;99222.91;;;9.22;86.32
53908;BME280;40469;47.998;7.794;2023-03-15T11:27:02;99207.19;;;9.75;77.89
53908;BME280;40469;47.998;7.794;2023-03-15T11:29:31;99205.47;;;9.67;82.65
53908;BME280;40469;47.998;7.794;2023-03-15T11:31:58;99197.53;;;9.95;83.67
53908;BME280;40469;47.998;7.794;2023-03-15T11:34:36;99197.53;;;9.97;76.95
53908;BME280;40469;47.998;7.794;2023-03-15T11:37:03;99194.88;;;10.15;70.58
53908;BME280;40469;47.998;7.794;2023-03-15T11:39:38;99188.97;;;9.62;70.95
53908;BME280;40469;47.998;7.794;2023-03-15T11:42:10;99199.41;;;9.64;67.74
53908;BME280;40469;47.998;7.794;2023-03-15T11:44:47;99193.22;;;9.94;67.96
53908;BME280;40469;47.998;7.794;2023-03-15T11:47:23;99179.16;;;10.28;62.75
53908;BME280;40469;47.998;7.794;2023-03-15T11:49:50;99167.00;;;10.33;66.12
53908;BME280;40469;47.998;7.794;2023-03-15T11:52:17;99171.53;;;9.83;73.19
53908;BME280;40469;47.998;7.794;2023-03-15T11:54:43;99175.91;;;9.70;75.88
53908;BME280;40469;47.998;7.794;2023-03-15T11:59:54;99180.31;;;9.42;76.43
53908;BME280;40469;47.998;7.794;2023-03-15T12:04:54;99187.25;;;9.58;64.92
53908;BME280;40469;47.998;7.794;2023-03-15T12:14:49;99181.38;;;10.92;61.47
53908;BME280;40469;47.998;7.794;2023-03-15T12:20:56;99180.09;;;10.13;63.11
53908;BME280;40469;47.998;7.794;2023-03-15T12:25:34;99170.69;;;9.67;70.04
53908;BME280;40469;47.998;7.794;2023-03-15T12:28:03;99178.47;;;9.82;72.66
53908;BME280;40469;47.998;7.794;2023-03-15T12:30:30;99175.97;;;9.35;73.69
53908;BME280;40469;47.998;7.794;2023-03-15T12:32:56;99183.81;;;9.41;77.20
53908;BME280;40469;47.998;7.794;2023-03-15T12:35:22;99169.91;;;9.49;77.24
53908;BME280;40469;47.998;7.794;2023-03-15T12:37:48;99179.47;;;9.43;77.14
53908;BME280;40469;47.998;7.794;2023-03-15T12:48:36;99162.97;;;9.24;74.67
53908;BME280;40469;47.998;7.794;2023-03-15T12:53:15;99161.25;;;9.21;75.44
53908;BME280;40469;47.998;7.794;2023-03-15T12:55:43;99172.56;;;9.02;78.71
53908;BME280;40469;47.998;7.794;2023-03-15T12:58:09;99163.00;;;9.16;84.81
53908;BME280;40469;47.998;7.794;2023-03-15T13:00:36;99159.53;;;8.96;88.16
53908;BME280;40469;47.998;7.794;2023-03-15T13:03:05;99165.59;;;9.10;81.80
53908;BME280;40469;47.998;7.794;2023-03-15T13:10:49;99147.66;;;10.61;71.25
53908;BME280;40469;47.998;7.794;2023-03-15T13:13:34;99143.44;;;10.39;70.72
53908;BME280;40469;47.998;7.794;2023-03-15T13:18:43;99140.38;;;9.26;81.20
53908;BME280;40469;47.998;7.794;2023-03-15T13:21:12;99136.84;;;9.61;82.36
53908;BME280;40469;47.998;7.794;2023-03-15T13:23:45;99127.16;;;9.91;80.93
53908;BME280;40469;47.998;7.794;2023-03-15T13:29:01;99133.03;;;10.37;75.22
53908;BME280;40469;47.998;7.794;2023-03-15T13:31:30;99118.38;;;10.12;76.59
53908;BME280;40469;47.998;7.794;2023-03-15T13:33:56;99127.94;;;10.11;76.00
53908;BME280;40469;47.998;7.794;2023-03-15T13:36:24;99123.75;;;9.68;80.43
53908;BME280;40469;47.998;7.794;2023-03-15T13:38:54;99129.97;;;9.30;84.21
53908;BME280;40469;47.998;7.794;2023-03-15T13:41:21;99128.16;;;9.57;87.21
53908;BME280;40469;47.998;7.794;2023-03-15T13:43:47;99116.69;;;9.97;85.27
53908;BME280;40469;47.998;7.794;2023-03-15T13:46:13;99127.84;;;10.28;83.65
53908;BME280;40469;47.998;7.794;2023-03-15T13:48:40;99121.84;;;10.12;79.44
53908;BME280;40469;47.998;7.794;2023-03-15T13:53:31;99119.22;;;10.11;81.28
53908;BME280;40469;47.998;7.794;2023-03-15T13:55:57;99119.22;;;10.11;82.85
53908;BME280;40469;47.998;7.794;2023-03-15T13:58:23;99121.09;;;9.87;85.45
53908;BME280;40469;47.998;7.794;2023-03-15T14:00:54;99119.50;;;9.46;87.30
53908;BME280;40469;47.998;7.794;2023-03-15T14:03:20;99113.31;;;9.73;87.88
53908;BME280;40469;47.998;7.794;2023-03-15T14:05:51;99111.63;;;9.67;85.76
53908;BME280;40469;47.998;7.794;2023-03-15T14:08:21;99115.22;;;9.23;89.96
53908;BME280;40469;47.998;7.794;2023-03-15T14:11:04;99117.88;;;8.86;90.10